Historique des stations

Retrouvez les conditions météo en temps réel en cliquant ici...

Station météo de Reuilly

Altitude de la station : 137 m







Données météorologiques pour le 20/10/2020
Date
Heure
Températures Humidité Point de rosée Vitesse
du vent
Direction Rafales Windchill Pression Pluviométrie
Cumul
Date
Heure
Températures Humidité Point de rosée Vitesse
du vent
Direction Rafales Windchill Pression Pluviométrie
Cumul
20/10/2020 18:1414.1 °C93 %13.0 °C-ESE3 km/h14.11007 hPa3.0 mm
20/10/2020 18:1414.1 °C93 %13.0 °C-ESE3 km/h14.11007 hPa3.0 mm
20/10/2020 18:1414.1 °C93 %13.0 °C-ESE3 km/h14.11007 hPa3.0 mm
20/10/2020 17:1414.3 °C93 %13.2 °C-ESE5 km/h14.31008 hPa3.0 mm
20/10/2020 17:1414.3 °C93 %13.2 °C-ESE5 km/h14.31008 hPa3.0 mm
20/10/2020 17:1414.3 °C93 %13.2 °C-ESE5 km/h14.31008 hPa3.0 mm
20/10/2020 17:1414.3 °C93 %13.2 °C-ESE5 km/h14.31008 hPa3.0 mm
20/10/2020 16:1414.3 °C93 %13.2 °C5 km/hE10 km/h14.31008 hPa3.0 mm
20/10/2020 16:1414.3 °C93 %13.2 °C5 km/hE10 km/h14.31008 hPa3.0 mm
20/10/2020 16:1414.3 °C93 %13.2 °C5 km/hE10 km/h14.31008 hPa3.0 mm
20/10/2020 16:1414.3 °C93 %13.2 °C5 km/hE10 km/h14.31008 hPa3.0 mm
20/10/2020 15:1413.9 °C93 %12.8 °C-NE5 km/h13.91009 hPa2.6 mm
20/10/2020 15:1413.9 °C93 %12.8 °C-NE5 km/h13.91009 hPa2.6 mm
20/10/2020 15:1413.9 °C93 %12.8 °C-NE5 km/h13.91009 hPa2.6 mm
20/10/2020 15:1413.9 °C93 %12.8 °C-NE5 km/h13.91009 hPa2.6 mm
20/10/2020 14:1413.6 °C91 %12.2 °C2 km/hE10 km/h13.61009 hPa2.2 mm
20/10/2020 14:1413.6 °C91 %12.2 °C2 km/hE10 km/h13.61009 hPa2.2 mm
20/10/2020 14:1413.6 °C91 %12.2 °C2 km/hE10 km/h13.61009 hPa2.2 mm
20/10/2020 14:1413.6 °C91 %12.2 °C2 km/hE10 km/h13.61009 hPa2.2 mm
20/10/2020 13:1413.5 °C90 %11.9 °C-ENE8 km/h13.51010 hPa1.4 mm
20/10/2020 13:1413.5 °C90 %11.9 °C-ENE8 km/h13.51010 hPa1.4 mm
20/10/2020 13:1413.5 °C90 %11.9 °C-ENE8 km/h13.51010 hPa1.4 mm
20/10/2020 13:1413.5 °C90 %11.9 °C-ENE8 km/h13.51010 hPa1.4 mm
20/10/2020 12:1413.2 °C90 %11.6 °C8 km/hSE11 km/h13.21010 hPa1.2 mm
20/10/2020 12:1413.2 °C90 %11.6 °C8 km/hSE11 km/h13.21010 hPa1.2 mm
20/10/2020 12:1413.2 °C90 %11.6 °C8 km/hSE11 km/h13.21010 hPa1.2 mm
20/10/2020 12:1413.2 °C90 %11.6 °C8 km/hSE11 km/h13.21010 hPa1.2 mm
20/10/2020 11:1412.1 °C92 %10.8 °C2 km/hE6 km/h12.11010 hPa1.0 mm
20/10/2020 11:1412.1 °C92 %10.8 °C2 km/hE6 km/h12.11010 hPa1.0 mm
20/10/2020 11:1412.1 °C92 %10.8 °C2 km/hE6 km/h12.11010 hPa1.0 mm
20/10/2020 11:1412.1 °C92 %10.8 °C2 km/hE6 km/h12.11010 hPa1.0 mm
20/10/2020 10:1411.1 °C93 %10.0 °C-ESE5 km/h11.11010 hPa0.6 mm
20/10/2020 10:1411.1 °C93 %10.0 °C-ESE5 km/h11.11010 hPa0.6 mm
20/10/2020 10:1411.1 °C93 %10.0 °C-ESE5 km/h11.11010 hPa0.6 mm
20/10/2020 10:1411.1 °C93 %10.0 °C-ESE5 km/h11.11010 hPa0.6 mm
20/10/2020 09:1410.8 °C92 %9.6 °C3 km/hNNE6 km/h10.81009 hPa0.2 mm
20/10/2020 09:1410.8 °C92 %9.6 °C3 km/hNNE6 km/h10.81009 hPa0.2 mm
20/10/2020 09:1410.8 °C92 %9.6 °C3 km/hNNE6 km/h10.81009 hPa0.2 mm
20/10/2020 09:1410.8 °C92 %9.6 °C3 km/hNNE6 km/h10.81009 hPa0.2 mm
20/10/2020 08:1410.0 °C93 %8.9 °C2 km/hNE5 km/h10.01009 hPa0.0 mm
20/10/2020 08:1410.0 °C93 %8.9 °C2 km/hNE5 km/h10.01009 hPa0.0 mm
20/10/2020 08:1410.0 °C93 %8.9 °C2 km/hNE5 km/h10.01009 hPa0.0 mm
20/10/2020 08:1410.0 °C93 %8.9 °C2 km/hNE5 km/h10.01009 hPa0.0 mm
20/10/2020 07:149.7 °C92 %8.4 °C-ENE3 km/h9.71009 hPa0.0 mm
20/10/2020 07:149.7 °C92 %8.4 °C-ENE3 km/h9.71009 hPa0.0 mm
20/10/2020 07:149.7 °C92 %8.4 °C-ENE3 km/h9.71009 hPa0.0 mm
20/10/2020 07:149.7 °C92 %8.4 °C-ENE3 km/h9.71009 hPa0.0 mm
20/10/2020 06:149.0 °C93 %7.9 °C3 km/hENE6 km/h9.01009 hPa0.0 mm
20/10/2020 06:149.0 °C93 %7.9 °C3 km/hENE6 km/h9.01009 hPa0.0 mm
20/10/2020 06:149.0 °C93 %7.9 °C3 km/hENE6 km/h9.01009 hPa0.0 mm
20/10/2020 06:149.0 °C93 %7.9 °C3 km/hENE6 km/h9.01009 hPa0.0 mm
20/10/2020 05:148.4 °C93 %7.3 °C-ESE2 km/h8.41009 hPa0.0 mm
20/10/2020 05:148.4 °C93 %7.3 °C-ESE2 km/h8.41009 hPa0.0 mm
20/10/2020 05:148.4 °C93 %7.3 °C-ESE2 km/h8.41009 hPa0.0 mm
20/10/2020 05:148.4 °C93 %7.3 °C-ESE2 km/h8.41009 hPa0.0 mm
20/10/2020 04:147.7 °C92 %6.5 °C2 km/hESE3 km/h7.71010 hPa0.0 mm
20/10/2020 04:147.7 °C92 %6.5 °C2 km/hESE3 km/h7.71010 hPa0.0 mm
20/10/2020 04:147.7 °C92 %6.5 °C2 km/hESE3 km/h7.71010 hPa0.0 mm
20/10/2020 04:147.7 °C92 %6.5 °C2 km/hESE3 km/h7.71010 hPa0.0 mm
20/10/2020 03:148.0 °C91 %6.6 °C3 km/hESE3 km/h8.01010 hPa0.0 mm
20/10/2020 03:148.0 °C91 %6.6 °C3 km/hESE3 km/h8.01010 hPa0.0 mm
20/10/2020 03:148.0 °C91 %6.6 °C3 km/hESE3 km/h8.01010 hPa0.0 mm
20/10/2020 03:148.0 °C91 %6.6 °C3 km/hESE3 km/h8.01010 hPa0.0 mm
20/10/2020 02:148.1 °C92 %6.8 °C3 km/hENE5 km/h8.11010 hPa0.0 mm
20/10/2020 02:148.1 °C92 %6.8 °C3 km/hENE5 km/h8.11010 hPa0.0 mm
20/10/2020 02:148.1 °C92 %6.8 °C3 km/hENE5 km/h8.11010 hPa0.0 mm
20/10/2020 02:148.1 °C92 %6.8 °C3 km/hENE5 km/h8.11010 hPa0.0 mm
20/10/2020 01:147.6 °C92 %6.3 °C3 km/hENE5 km/h7.61010 hPa0.0 mm
20/10/2020 01:147.6 °C92 %6.3 °C3 km/hENE5 km/h7.61010 hPa0.0 mm
20/10/2020 01:147.6 °C92 %6.3 °C3 km/hENE5 km/h7.61010 hPa0.0 mm
20/10/2020 01:147.6 °C92 %6.3 °C3 km/hENE5 km/h7.61010 hPa0.0 mm
20/10/2020 00:147.9 °C89 %6.2 °C2 km/hENE3 km/h7.91010 hPa0.0 mm
20/10/2020 00:147.9 °C89 %6.2 °C2 km/hENE3 km/h7.91010 hPa0.0 mm
20/10/2020 00:147.9 °C89 %6.2 °C2 km/hENE3 km/h7.91010 hPa0.0 mm
20/10/2020 00:147.9 °C89 %6.2 °C2 km/hENE3 km/h7.91010 hPa0.0 mm


Minima :

Température : 7.6 °C
Humidité : 89 %
Point de rosée : 6.2 °C
Vent moyen : 2 km/h
Windchill : 7.6
Pression atm. : 1007 hPa
Maxima :

Température : 14.3 °C
Humidité : 93 %
Point de rosée : 13.2 °C
Vent moyen : 8 km/h
Windchill : 14.3
Pression atm. : 1010 hPa
Rafales max : 11 km/h
Cumul de pluie sur 24H : 3.0 mm

Reuilly est une commune du département Indre (36).
La station météorologique du réseau de l'association la plus proche de Reuilly est celle de Issoudun



Icône Facebook Association Météo Centre Icône Twitter Association Météo Centre Icône Chaîne Youtube Association Météo Centre Icône contact Association Météo Centre Icône Insta Association Météo Centre